Aviation Digital Data Service (ADDS)

Output produced by TAFs form (1128 UTC 31 July 2014)
found at http://aviationweather.gov/adds/tafs/
 
KTCS 310531Z 3106/0106 03011KT P6SM VCSH SCT070 SCT120 SCT250 
     TEMPO 3106/3108 -SHRA BKN070 BKN120 OVC250 
     FM310900 04012G18KT P6SM SCT060 BKN120 BKN250 
     FM311500 12009KT P6SM FEW060 SCT110 BKN200 
     FM312100 19009KT P6SM VCTS SCT060CB BKN100 BKN250 
     FM010300 30007KT P6SM FEW060 SCT100 BKN250